MET783 - Boston to Houston

Airbus A319-131
309MT
3 hrs 15 mins
1388 nm
Scheduled - Daily

Bid/PiRep Status

Bid was submitted on January 8th, 2017 1:58 UTC.
PiRep # 74655: Approved by Sean Doyle on January 9th, 2017 3:52 UTC

Departure

Departing from
Boston (BOS)
Departure gate
Scheduled Departure
GMT 1445
Local 1045
METAR KBOS 191654Z 28026G37KT 10SM -RA FEW018 BKN036 OVC045 10/06 A2917 RMK AO2 PK WND 28042/1641 RAB1559 CIG 029 E SLP877 P0000 T01000056
TAF KBOS 191530Z 1915/2018 19015G22KT P6SM -SHRA SCT015 OVC035 TEMPO 1915/1917 BKN015 FM191700 27023G39KT P6SM BKN045 FM191900 27019G37KT P6SM SCT080 FM200000 27014G29KT P6SM SKC

Arrival

Arriving at
Houston (IAH)
Arrival gate
Scheduled Arrival
GMT 1800
Local 1300
METAR KIAH 191753Z 03012G19KT 10SM SCT250 17/01 A3031 RMK AO2 SLP262 T01720006 10178 20083 58015
TAF KIAH 191720Z 1918/2024 04016KT P6SM SCT250 FM192100 36008KT P6SM FEW250 FM200000 02003KT P6SM SCT250 FM201600 12007KT P6SM BKN250

Route Map

Planning Resources

KBWI BINKS J75 GVE J42 SWAPP Q34 MEM J29 DARTR KIAH
KBWI BINKS J75 GVE J42 SWAPP Q34 MEM J29 VELCO DARTR KIAH
FLUKY PAUKI MOL J22 VUZ JAN AEX DAS8
KBWI PEPBI GRAAF VETTE NALIE KIAH
BINKS J75 GVE J42 MOL J22 VUZ J31 MEI J22 MCB J50 CIDOR J180 DAS
Route:
OFP Layout:
Units:
Detailed Navlog:
ETOPS Planning:
Plan Stepclimbs:
Runway Analysis:
Include NOTAMS:
FIR NOTAMS:
Flight Maps:

Return Flights

MET307
Airbus A320-231
2235 GMT
MET309
Airbus A321-232
1045 GMT

Popularity

Hub Current Bids PiReps this month Total PiReps
KLAX 0 0 2
KBOS 0 0 1
KDFW 0 0 0